createdAt,value
2023-02-23T00:01:55.351Z,13.20
2023-02-23T00:04:24.671Z,13.20
2023-02-23T00:06:54.035Z,13.20
2023-02-23T00:09:24.357Z,13.20
2023-02-23T00:11:55.222Z,13.20
2023-02-23T00:14:27.782Z,13.20
2023-02-23T00:16:55.923Z,13.10
2023-02-23T00:19:25.372Z,13.10
2023-02-23T00:21:54.046Z,13.10
2023-02-23T00:24:23.681Z,13.10
2023-02-23T00:26:53.969Z,13.10
2023-02-23T00:29:23.816Z,13.10
2023-02-23T00:31:53.221Z,13.10
2023-02-23T00:34:23.593Z,13.00
2023-02-23T00:36:54.783Z,13.00
2023-02-23T00:39:26.759Z,13.00
2023-02-23T00:41:56.996Z,13.00
2023-02-23T00:44:25.663Z,12.90
2023-02-23T00:46:54.323Z,13.00
2023-02-23T00:49:23.654Z,12.90
2023-02-23T00:51:52.223Z,12.90
2023-02-23T00:54:22.722Z,12.90
2023-02-23T00:56:51.473Z,12.90
2023-02-23T00:59:21.682Z,12.90
2023-02-23T01:01:50.144Z,12.90
2023-02-23T01:04:18.256Z,12.90
2023-02-23T01:06:46.903Z,12.90
2023-02-23T01:09:22.450Z,12.90
2023-02-23T01:11:50.664Z,12.90
2023-02-23T01:14:22.602Z,12.90
2023-02-23T01:16:50.734Z,12.80
2023-02-23T01:19:19.352Z,12.80
2023-02-23T01:21:47.995Z,12.80
2023-02-23T01:24:16.669Z,12.80
2023-02-23T01:26:47.610Z,12.80
2023-02-23T01:29:17.673Z,12.80
2023-02-23T01:31:48.719Z,12.80
2023-02-23T01:34:17.514Z,12.70
2023-02-23T01:36:45.923Z,12.80
2023-02-23T01:39:16.109Z,12.80
2023-02-23T01:41:44.757Z,12.70
2023-02-23T01:44:46.347Z,12.70
2023-02-23T01:47:17.700Z,12.70
2023-02-23T01:49:46.395Z,12.70
2023-02-23T01:52:18.638Z,12.70
2023-02-23T01:54:51.641Z,12.70
2023-02-23T01:57:25.327Z,12.70
2023-02-23T01:59:53.959Z,12.70
2023-02-23T02:02:33.342Z,12.70
2023-02-23T02:05:05.239Z,12.70
2023-02-23T02:07:36.265Z,12.70
2023-02-23T02:10:23.161Z,12.70
2023-02-23T02:12:56.423Z,12.70
2023-02-23T02:15:27.741Z,12.70
2023-02-23T02:18:09.700Z,12.70
2023-02-23T02:21:08.411Z,12.70
2023-02-23T02:24:11.713Z,12.70
2023-02-23T02:26:51.358Z,12.70
2023-02-23T02:29:48.834Z,12.70
2023-02-23T02:32:57.348Z,12.60
2023-02-23T02:36:07.953Z,12.60
2023-02-23T02:38:51.012Z,12.60
2023-02-23T02:41:27.610Z,12.60
2023-02-23T02:44:02.092Z,12.60
2023-02-23T02:46:36.561Z,12.50
2023-02-23T02:49:10.341Z,12.50
2023-02-23T02:51:46.314Z,12.50
2023-02-23T02:54:25.322Z,12.40
2023-02-23T02:56:57.870Z,12.40
2023-02-23T02:59:44.051Z,12.40
2023-02-23T03:02:35.038Z,12.40
2023-02-23T03:05:21.031Z,12.40
2023-02-23T03:08:13.606Z,12.40
2023-02-23T03:11:11.797Z,12.30
2023-02-23T03:14:07.668Z,12.30
2023-02-23T03:17:00.993Z,12.30
2023-02-23T03:19:50.952Z,12.30
2023-02-23T03:22:42.745Z,12.30
2023-02-23T03:25:33.580Z,12.30
2023-02-23T03:28:31.256Z,12.30
2023-02-23T03:31:24.509Z,12.30
2023-02-23T03:34:17.376Z,12.30
2023-02-23T03:37:09.577Z,12.30
2023-02-23T03:39:59.668Z,12.20
2023-02-23T03:42:51.469Z,12.20
2023-02-23T03:45:42.488Z,12.20
2023-02-23T03:48:31.103Z,12.20
2023-02-23T03:51:22.445Z,12.20
2023-02-23T03:54:12.875Z,12.20
2023-02-23T03:57:03.299Z,12.20
2023-02-23T03:59:53.257Z,12.20
2023-02-23T04:02:42.569Z,12.20
2023-02-23T04:05:35.529Z,12.20
2023-02-23T04:08:23.251Z,12.10
2023-02-23T04:11:13.882Z,12.10
2023-02-23T04:13:42.636Z,12.10
2023-02-23T04:16:11.138Z,12.10
2023-02-23T04:18:43.097Z,12.10
2023-02-23T04:21:11.290Z,12.10
2023-02-23T04:23:41.546Z,12.10
2023-02-23T04:26:10.665Z,12.10
2023-02-23T04:28:39.232Z,12.10
2023-02-23T04:31:07.336Z,12.10
2023-02-23T04:33:35.437Z,12.10
2023-02-23T04:36:05.811Z,12.10
2023-02-23T04:38:33.859Z,12.10
2023-02-23T04:41:02.455Z,12.10
2023-02-23T04:43:30.700Z,12.10
2023-02-23T04:45:58.864Z,12.10
2023-02-23T04:48:27.664Z,12.10
2023-02-23T04:50:56.150Z,12.10
2023-02-23T04:53:26.620Z,12.10
2023-02-23T04:55:54.744Z,12.10
2023-02-23T04:58:23.366Z,12.10
2023-02-23T05:00:51.450Z,12.10
2023-02-23T05:03:19.997Z,12.10
2023-02-23T05:05:48.563Z,12.00
2023-02-23T05:08:16.666Z,12.00
2023-02-23T05:10:47.942Z,12.00
2023-02-23T05:13:16.366Z,12.10
2023-02-23T05:15:44.929Z,12.00
2023-02-23T05:18:13.489Z,12.00
2023-02-23T05:20:45.284Z,12.00
2023-02-23T05:23:13.448Z,12.00
2023-02-23T05:25:42.060Z,12.00
2023-02-23T05:28:11.631Z,12.00
2023-02-23T05:30:40.196Z,12.00
2023-02-23T05:33:08.756Z,12.00
2023-02-23T05:35:36.855Z,12.00
2023-02-23T05:38:05.407Z,12.00
2023-02-23T05:40:34.793Z,12.00
2023-02-23T05:43:03.350Z,12.00
2023-02-23T05:45:33.739Z,12.00
2023-02-23T05:48:01.815Z,12.00
2023-02-23T05:50:30.449Z,12.00
2023-02-23T05:52:58.525Z,12.00
2023-02-23T05:55:27.640Z,12.00
2023-02-23T05:57:55.760Z,12.00
2023-02-23T06:00:24.910Z,12.00
2023-02-23T06:02:54.691Z,12.00
2023-02-23T06:05:23.374Z,12.00
2023-02-23T06:07:51.583Z,12.00
2023-02-23T06:10:20.376Z,12.00
2023-02-23T06:12:48.452Z,12.00
2023-02-23T06:15:17.364Z,12.00
2023-02-23T06:17:45.901Z,12.00
2023-02-23T06:20:15.840Z,12.00
2023-02-23T06:22:44.667Z,12.00
2023-02-23T06:25:13.945Z,12.00
2023-02-23T06:27:42.526Z,12.00
2023-02-23T06:30:12.443Z,12.00
2023-02-23T06:32:40.818Z,12.00
2023-02-23T06:35:09.672Z,12.00
2023-02-23T06:37:39.644Z,12.00
2023-02-23T06:40:08.971Z,12.00
2023-02-23T06:42:37.603Z,12.00
2023-02-23T06:45:06.483Z,12.00
2023-02-23T06:47:35.138Z,12.00
2023-02-23T06:50:03.248Z,12.00
2023-02-23T06:52:31.847Z,12.00
2023-02-23T06:55:01.609Z,12.00
2023-02-23T06:57:29.692Z,12.00
2023-02-23T06:59:57.838Z,12.00
2023-02-23T07:02:25.946Z,12.00
2023-02-23T07:04:54.005Z,12.00
2023-02-23T07:07:22.303Z,12.00
2023-02-23T07:09:50.376Z,12.00
2023-02-23T07:12:19.927Z,12.00
2023-02-23T07:14:48.214Z,12.10
2023-02-23T07:17:18.349Z,12.10
2023-02-23T07:19:46.501Z,12.10
2023-02-23T07:22:14.637Z,12.10
2023-02-23T07:24:42.743Z,12.10
2023-02-23T07:27:10.818Z,12.10
2023-02-23T07:29:40.748Z,12.10
2023-02-23T07:32:09.415Z,12.10
2023-02-23T07:34:38.043Z,12.10
2023-02-23T07:37:06.160Z,12.10
2023-02-23T07:39:34.762Z,12.10
2023-02-23T07:42:02.905Z,12.10
2023-02-23T07:44:31.529Z,12.10
2023-02-23T07:47:01.078Z,12.10
2023-02-23T07:49:30.552Z,12.10
2023-02-23T07:51:59.152Z,12.20
2023-02-23T07:54:28.090Z,12.20
2023-02-23T07:56:56.404Z,12.20
2023-02-23T07:59:25.014Z,12.20
2023-02-23T08:01:53.147Z,12.20
2023-02-23T08:04:23.139Z,12.20
2023-02-23T08:06:51.764Z,12.30
2023-02-23T08:09:19.859Z,12.20
2023-02-23T08:11:48.438Z,12.30
2023-02-23T08:14:16.492Z,12.30
2023-02-23T08:16:45.082Z,12.30
2023-02-23T08:19:13.208Z,12.30
2023-02-23T08:21:43.404Z,12.30
2023-02-23T08:24:11.856Z,12.30
2023-02-23T08:26:40.016Z,12.40
2023-02-23T08:29:09.016Z,12.30
2023-02-23T08:31:37.552Z,12.40
2023-02-23T08:34:05.867Z,12.40
2023-02-23T08:36:34.106Z,12.40
2023-02-23T08:39:06.520Z,12.40
2023-02-23T08:41:34.980Z,12.40
2023-02-23T08:44:03.070Z,12.40
2023-02-23T08:46:31.322Z,12.40
2023-02-23T08:48:59.610Z,12.40
2023-02-23T08:51:28.565Z,12.40
2023-02-23T08:53:58.096Z,12.40
2023-02-23T08:56:28.434Z,12.40
2023-02-23T08:58:57.311Z,12.40
2023-02-23T09:01:25.946Z,12.40
2023-02-23T09:03:54.048Z,12.50
2023-02-23T09:06:26.251Z,12.50
2023-02-23T09:08:55.680Z,12.50
2023-02-23T09:11:24.059Z,12.40
2023-02-23T09:13:53.514Z,12.40
2023-02-23T09:16:22.098Z,12.40
2023-02-23T09:18:50.412Z,12.50
2023-02-23T09:21:25.694Z,12.50
2023-02-23T09:23:56.163Z,12.50
2023-02-23T09:26:26.790Z,12.50
2023-02-23T09:28:57.367Z,12.50
2023-02-23T09:31:25.891Z,12.60
2023-02-23T09:33:55.252Z,12.60
2023-02-23T09:36:26.270Z,12.60
2023-02-23T09:38:57.723Z,12.60
2023-02-23T09:41:59.694Z,12.60
2023-02-23T09:44:43.817Z,12.60
2023-02-23T09:47:30.166Z,12.60
2023-02-23T09:50:00.845Z,12.60
2023-02-23T09:52:38.789Z,12.60
2023-02-23T09:55:08.698Z,12.70
2023-02-23T09:57:39.999Z,12.70
2023-02-23T10:00:19.127Z,12.70
2023-02-23T10:03:04.478Z,12.70
2023-02-23T10:05:38.859Z,12.70
2023-02-23T10:08:09.943Z,12.80
2023-02-23T10:10:45.170Z,12.80
2023-02-23T10:13:23.358Z,12.80
2023-02-23T10:15:58.065Z,12.80
2023-02-23T10:18:46.021Z,12.90
2023-02-23T10:21:20.095Z,12.90
2023-02-23T10:23:55.839Z,12.90
2023-02-23T10:26:28.286Z,12.90
2023-02-23T10:28:59.932Z,13.00
2023-02-23T10:31:36.020Z,13.00
2023-02-23T10:34:11.574Z,13.00
2023-02-23T10:36:45.114Z,13.00
2023-02-23T10:39:15.442Z,13.00
2023-02-23T10:41:44.867Z,13.10
2023-02-23T10:44:19.557Z,13.10
2023-02-23T10:46:55.826Z,13.10
2023-02-23T10:49:30.344Z,13.20
2023-02-23T10:52:03.073Z,13.20
2023-02-23T10:54:48.005Z,13.20
2023-02-23T10:57:26.653Z,13.30
2023-02-23T11:00:17.140Z,13.30
2023-02-23T11:02:47.736Z,13.30
2023-02-23T11:05:32.308Z,13.30
2023-02-23T11:08:30.822Z,13.40
2023-02-23T11:11:19.813Z,13.40
2023-02-23T11:13:50.047Z,13.40
2023-02-23T11:16:20.511Z,13.40
2023-02-23T11:18:57.081Z,13.40
2023-02-23T11:21:29.550Z,13.40
2023-02-23T11:24:00.698Z,13.40
2023-02-23T11:26:40.346Z,13.40
2023-02-23T11:29:18.205Z,13.40
2023-02-23T11:31:53.095Z,13.40
2023-02-23T11:34:30.029Z,13.40
2023-02-23T11:37:04.982Z,13.40
2023-02-23T11:39:33.653Z,13.40
2023-02-23T11:42:19.922Z,13.50
2023-02-23T11:45:04.684Z,13.50
2023-02-23T11:47:35.289Z,13.50
2023-02-23T11:50:06.463Z,13.50
2023-02-23T11:52:36.922Z,13.50
2023-02-23T11:55:17.187Z,13.50
2023-02-23T11:57:46.811Z,13.50
2023-02-23T12:00:25.024Z,13.50
2023-02-23T12:02:57.130Z,13.50
2023-02-23T12:05:28.767Z,13.50
2023-02-23T12:08:05.745Z,13.50
2023-02-23T12:10:39.818Z,13.50
2023-02-23T12:13:21.878Z,13.60
2023-02-23T12:15:54.512Z,13.60
2023-02-23T12:18:39.506Z,13.60
2023-02-23T12:21:20.351Z,13.60
2023-02-23T12:23:52.788Z,13.60
2023-02-23T12:26:24.819Z,13.70
2023-02-23T12:29:00.020Z,13.70
2023-02-23T12:31:36.645Z,13.70
2023-02-23T12:34:13.311Z,13.70
2023-02-23T12:36:47.723Z,13.80
2023-02-23T12:39:22.916Z,13.80
2023-02-23T12:42:00.334Z,13.80
2023-02-23T12:44:42.695Z,13.80
2023-02-23T12:47:22.290Z,13.80
2023-02-23T12:49:55.149Z,13.90
2023-02-23T12:52:31.029Z,13.90
2023-02-23T12:54:59.650Z,13.90
2023-02-23T12:57:39.224Z,13.90
2023-02-23T13:00:48.069Z,13.90
2023-02-23T13:03:55.529Z,14.00
2023-02-23T13:06:30.691Z,14.00
2023-02-23T13:09:10.882Z,14.00
2023-02-23T13:11:56.309Z,14.00
2023-02-23T13:14:30.829Z,14.00
2023-02-23T13:17:04.388Z,14.00
2023-02-23T13:19:42.502Z,14.00
2023-02-23T13:22:27.033Z,14.00
2023-02-23T13:25:00.636Z,14.10
2023-02-23T13:27:35.327Z,14.10
2023-02-23T13:30:05.454Z,14.10
2023-02-23T13:32:36.860Z,14.10
2023-02-23T13:35:08.086Z,14.10
2023-02-23T13:37:43.758Z,14.10
2023-02-23T13:40:28.587Z,14.20
2023-02-23T13:43:08.657Z,14.20
2023-02-23T13:45:54.009Z,14.20
2023-02-23T13:48:33.296Z,14.20
2023-02-23T13:51:08.140Z,14.20
2023-02-23T13:53:41.989Z,14.20
2023-02-23T13:56:16.923Z,14.20
2023-02-23T13:58:48.886Z,14.10
2023-02-23T14:01:22.514Z,14.10
2023-02-23T14:03:56.095Z,14.10
2023-02-23T14:06:26.901Z,14.10
2023-02-23T14:09:00.837Z,14.10
2023-02-23T14:11:46.905Z,14.10
2023-02-23T14:14:37.499Z,14.20
2023-02-23T14:17:51.081Z,14.20
2023-02-23T14:20:44.196Z,14.20
2023-02-23T14:23:49.682Z,14.30
2023-02-23T14:26:47.349Z,14.30
2023-02-23T14:29:27.754Z,14.30
2023-02-23T14:31:59.667Z,14.30
2023-02-23T14:34:52.670Z,14.30
2023-02-23T14:37:27.208Z,14.30
2023-02-23T14:39:57.743Z,14.30
2023-02-23T14:42:30.709Z,14.30
2023-02-23T14:45:05.514Z,14.30
2023-02-23T14:47:43.737Z,14.30
2023-02-23T14:50:17.901Z,14.30
2023-02-23T14:52:46.676Z,14.30
2023-02-23T14:55:22.828Z,14.30
2023-02-23T14:57:54.292Z,14.30
2023-02-23T15:00:25.370Z,14.30
2023-02-23T15:03:03.684Z,14.30
2023-02-23T15:05:34.006Z,14.30
2023-02-23T15:08:05.151Z,14.30
2023-02-23T15:10:37.877Z,14.20
2023-02-23T15:13:13.129Z,14.20
2023-02-23T15:15:45.872Z,14.20
2023-02-23T15:19:08.935Z,14.20
2023-02-23T15:21:40.257Z,14.20
2023-02-23T15:24:12.832Z,14.20
2023-02-23T15:26:44.199Z,14.20
2023-02-23T15:29:18.370Z,14.10
2023-02-23T15:31:52.348Z,14.10
2023-02-23T15:34:22.539Z,14.10
2023-02-23T15:36:54.466Z,14.10
2023-02-23T15:39:36.035Z,14.10
2023-02-23T15:42:06.053Z,14.10
2023-02-23T15:44:44.107Z,14.10
2023-02-23T15:47:21.644Z,14.10
2023-02-23T15:49:50.324Z,14.10
2023-02-23T15:52:24.109Z,14.10
2023-02-23T15:55:00.784Z,14.10
2023-02-23T15:57:31.515Z,14.10
2023-02-23T16:00:07.824Z,14.10
2023-02-23T16:02:38.410Z,15.30
2023-02-23T16:05:22.002Z,14.20
2023-02-23T16:07:50.167Z,14.20
2023-02-23T16:10:23.611Z,14.10
2023-02-23T16:12:54.419Z,14.10
2023-02-23T16:15:27.227Z,14.10
2023-02-23T16:17:58.947Z,14.10
2023-02-23T16:20:36.876Z,14.10
2023-02-23T16:23:07.409Z,14.10
2023-02-23T16:25:36.154Z,14.10
2023-02-23T16:28:09.796Z,14.10
2023-02-23T16:30:44.521Z,14.10
2023-02-23T16:33:19.479Z,14.00
2023-02-23T16:35:50.752Z,14.00
2023-02-23T16:38:25.611Z,14.00
2023-02-23T16:40:54.404Z,14.00
2023-02-23T16:43:23.432Z,14.00
2023-02-23T16:45:53.093Z,13.90
2023-02-23T16:48:21.193Z,14.00
2023-02-23T16:50:51.157Z,13.90
2023-02-23T16:53:19.718Z,13.90
2023-02-23T16:55:52.389Z,13.90
2023-02-23T16:58:23.711Z,13.90
2023-02-23T17:00:54.173Z,13.90
2023-02-23T17:03:26.572Z,13.90
2023-02-23T17:05:56.745Z,13.80
2023-02-23T17:08:26.322Z,13.80
2023-02-23T17:10:55.914Z,13.80
2023-02-23T17:13:26.441Z,13.80
2023-02-23T17:15:58.436Z,13.70
2023-02-23T17:18:28.568Z,13.70
2023-02-23T17:20:58.987Z,13.70
2023-02-23T17:23:29.776Z,13.60
2023-02-23T17:25:58.995Z,13.60
2023-02-23T17:28:27.082Z,13.60
2023-02-23T17:30:57.029Z,13.50
2023-02-23T17:33:25.358Z,13.50
2023-02-23T17:35:53.947Z,13.50
2023-02-23T17:38:23.688Z,13.40
2023-02-23T17:40:53.090Z,13.40
2023-02-23T17:43:23.884Z,13.30
2023-02-23T17:45:55.165Z,13.30
2023-02-23T17:48:25.367Z,13.30
2023-02-23T17:50:59.538Z,13.20
2023-02-23T17:53:28.243Z,13.20
2023-02-23T17:55:56.992Z,13.20
2023-02-23T17:58:25.740Z,13.10
2023-02-23T18:00:57.482Z,13.10
2023-02-23T18:03:32.283Z,13.00
2023-02-23T18:06:04.396Z,13.00
2023-02-23T18:08:33.697Z,13.00
2023-02-23T18:11:02.679Z,13.00
2023-02-23T18:13:33.323Z,12.90
2023-02-23T18:16:03.478Z,12.90
2023-02-23T18:18:33.422Z,12.90
2023-02-23T18:21:03.292Z,12.90
2023-02-23T18:23:33.385Z,12.90
2023-02-23T18:26:09.004Z,12.80
2023-02-23T18:28:38.657Z,12.80
2023-02-23T18:31:07.587Z,12.80
2023-02-23T18:33:37.555Z,12.80
2023-02-23T18:36:17.073Z,12.70
2023-02-23T18:38:45.613Z,12.80
2023-02-23T18:41:14.015Z,12.70
2023-02-23T18:43:42.068Z,12.70
2023-02-23T18:46:14.902Z,12.70
2023-02-23T18:48:45.278Z,12.70
2023-02-23T18:51:15.130Z,12.70
2023-02-23T18:53:44.661Z,12.70
2023-02-23T18:56:15.831Z,12.70
2023-02-23T18:58:46.294Z,12.70
2023-02-23T19:01:18.906Z,12.80
2023-02-23T19:03:49.017Z,12.70
2023-02-23T19:06:18.179Z,12.70
2023-02-23T19:08:54.618Z,12.70
2023-02-23T19:11:26.728Z,12.80
2023-02-23T19:13:56.164Z,12.80
2023-02-23T19:16:25.953Z,12.80
2023-02-23T19:18:55.898Z,12.80
2023-02-23T19:21:24.050Z,12.80
2023-02-23T19:23:54.072Z,12.90
2023-02-23T19:26:22.830Z,12.80
2023-02-23T19:28:51.437Z,12.80
2023-02-23T19:31:23.517Z,12.90
2023-02-23T19:33:53.508Z,12.80
2023-02-23T19:36:26.902Z,12.90
2023-02-23T19:38:56.945Z,12.90
2023-02-23T19:41:25.725Z,12.90
2023-02-23T19:43:54.481Z,12.90
2023-02-23T19:46:26.017Z,12.90
2023-02-23T19:48:54.245Z,12.80
2023-02-23T19:51:24.574Z,12.90
2023-02-23T19:53:54.905Z,12.80
2023-02-23T19:56:25.332Z,12.80
2023-02-23T19:58:53.961Z,12.80
2023-02-23T20:01:23.749Z,12.80
2023-02-23T20:03:55.936Z,12.80
2023-02-23T20:06:27.966Z,12.80
2023-02-23T20:08:56.495Z,12.80
2023-02-23T20:11:25.060Z,12.80
2023-02-23T20:13:53.655Z,12.80
2023-02-23T20:16:22.065Z,12.80
2023-02-23T20:18:50.176Z,12.80
2023-02-23T20:21:20.925Z,12.80
2023-02-23T20:23:50.946Z,12.80
2023-02-23T20:26:22.345Z,12.80
2023-02-23T20:28:51.269Z,12.80
2023-02-23T20:31:23.087Z,12.80
2023-02-23T20:33:51.542Z,12.80
2023-02-23T20:36:20.855Z,12.80
2023-02-23T20:38:51.051Z,12.70
2023-02-23T20:41:20.882Z,12.80
2023-02-23T20:43:49.276Z,12.80
2023-02-23T20:46:20.260Z,12.80
2023-02-23T20:48:49.255Z,12.80
2023-02-23T20:51:19.445Z,12.80
2023-02-23T20:53:51.128Z,12.80
2023-02-23T20:56:22.185Z,12.80
2023-02-23T20:58:50.924Z,12.80
2023-02-23T21:01:22.980Z,12.80
2023-02-23T21:03:52.767Z,12.80
2023-02-23T21:06:22.313Z,12.70
2023-02-23T21:08:56.091Z,12.70
2023-02-23T21:11:26.662Z,12.70
2023-02-23T21:13:55.008Z,12.70
2023-02-23T21:16:24.310Z,12.60
2023-02-23T21:19:04.087Z,12.60
2023-02-23T21:21:33.331Z,12.60
2023-02-23T21:24:03.281Z,12.60
2023-02-23T21:26:31.694Z,12.60
2023-02-23T21:28:59.788Z,12.60
2023-02-23T21:31:28.539Z,12.60
2023-02-23T21:33:56.806Z,12.50
2023-02-23T21:36:25.528Z,12.50
2023-02-23T21:38:53.609Z,12.50
2023-02-23T21:41:26.170Z,12.50
2023-02-23T21:43:54.933Z,12.50
2023-02-23T21:46:23.887Z,12.50
2023-02-23T21:48:52.856Z,12.50
2023-02-23T21:51:21.324Z,12.50
2023-02-23T21:53:50.239Z,12.50
2023-02-23T21:56:24.101Z,12.50
2023-02-23T21:58:54.898Z,12.50
2023-02-23T22:01:26.012Z,12.50
2023-02-23T22:03:55.510Z,12.50
2023-02-23T22:06:27.263Z,12.50
2023-02-23T22:08:56.773Z,12.50
2023-02-23T22:11:27.153Z,12.60
2023-02-23T22:14:00.376Z,12.60
2023-02-23T22:16:30.050Z,12.60
2023-02-23T22:18:59.139Z,12.60
2023-02-23T22:21:27.850Z,12.60
2023-02-23T22:23:56.214Z,12.60
2023-02-23T22:26:24.815Z,12.60
2023-02-23T22:28:52.901Z,12.60
2023-02-23T22:31:23.563Z,12.60
2023-02-23T22:33:52.524Z,12.60
2023-02-23T22:36:21.147Z,12.60
2023-02-23T22:38:49.348Z,12.60
2023-02-23T22:41:18.108Z,12.60
2023-02-23T22:43:48.425Z,12.60
2023-02-23T22:46:17.855Z,12.50
2023-02-23T22:48:47.683Z,12.60
2023-02-23T22:51:18.109Z,12.50
2023-02-23T22:53:46.572Z,12.50
2023-02-23T22:56:15.525Z,12.50
2023-02-23T22:58:43.713Z,12.50
2023-02-23T23:01:13.532Z,12.50
2023-02-23T23:03:46.182Z,12.50
2023-02-23T23:06:22.070Z,12.40
2023-02-23T23:08:53.257Z,12.50
2023-02-23T23:11:23.586Z,12.50
2023-02-23T23:13:54.291Z,12.50
2023-02-23T23:16:31.627Z,12.50
2023-02-23T23:19:02.966Z,12.50
2023-02-23T23:21:34.252Z,12.50
2023-02-23T23:24:06.267Z,12.50
2023-02-23T23:26:35.590Z,12.50
2023-02-23T23:29:06.277Z,12.50
2023-02-23T23:31:36.424Z,12.50
2023-02-23T23:34:09.187Z,12.50
2023-02-23T23:36:43.639Z,12.50
2023-02-23T23:39:13.054Z,12.50
2023-02-23T23:41:43.550Z,12.50
2023-02-23T23:44:13.610Z,12.50
2023-02-23T23:46:44.809Z,12.50
2023-02-23T23:49:16.337Z,12.50
2023-02-23T23:51:49.305Z,12.50
2023-02-23T23:54:20.053Z,12.50
2023-02-23T23:56:48.862Z,12.40
2023-02-23T23:59:20.777Z,12.40
